sensor_id;sensor_type;location;lat;lon;timestamp;P1;durP1;ratioP1;P2;durP2;ratioP2
64799;SDS011;51233;51.982;4.594;2023-02-20T00:01:49;14.15;;;5.30;;
64799;SDS011;51233;51.982;4.594;2023-02-20T00:04:50;8.18;;;5.00;;
64799;SDS011;51233;51.982;4.594;2023-02-20T00:07:50;11.25;;;5.60;;
64799;SDS011;51233;51.982;4.594;2023-02-20T00:10:50;10.17;;;5.43;;
64799;SDS011;51233;51.982;4.594;2023-02-20T00:13:53;10.15;;;5.90;;
64799;SDS011;51233;51.982;4.594;2023-02-20T00:16:53;11.18;;;6.13;;
64799;SDS011;51233;51.982;4.594;2023-02-20T00:19:54;10.65;;;5.47;;
64799;SDS011;51233;51.982;4.594;2023-02-20T00:22:54;12.18;;;5.57;;
64799;SDS011;51233;51.982;4.594;2023-02-20T00:25:55;10.85;;;5.30;;
64799;SDS011;51233;51.982;4.594;2023-02-20T00:28:57;12.25;;;5.22;;
64799;SDS011;51233;51.982;4.594;2023-02-20T00:31:58;11.73;;;5.50;;
64799;SDS011;51233;51.982;4.594;2023-02-20T00:34:58;11.50;;;5.30;;
64799;SDS011;51233;51.982;4.594;2023-02-20T00:37:58;12.02;;;6.05;;
64799;SDS011;51233;51.982;4.594;2023-02-20T00:40:58;13.82;;;6.25;;
64799;SDS011;51233;51.982;4.594;2023-02-20T00:43:58;17.35;;;6.40;;
64799;SDS011;51233;51.982;4.594;2023-02-20T00:46:59;12.93;;;5.78;;
64799;SDS011;51233;51.982;4.594;2023-02-20T00:49:59;12.43;;;6.22;;
64799;SDS011;51233;51.982;4.594;2023-02-20T00:52:59;13.15;;;5.80;;
64799;SDS011;51233;51.982;4.594;2023-02-20T00:55:59;13.10;;;6.10;;
64799;SDS011;51233;51.982;4.594;2023-02-20T00:59:05;13.43;;;6.35;;
64799;SDS011;51233;51.982;4.594;2023-02-20T01:02:05;11.05;;;5.38;;
64799;SDS011;51233;51.982;4.594;2023-02-20T01:05:05;15.00;;;7.77;;
64799;SDS011;51233;51.982;4.594;2023-02-20T01:08:06;19.87;;;8.37;;
64799;SDS011;51233;51.982;4.594;2023-02-20T01:11:06;17.17;;;8.23;;
64799;SDS011;51233;51.982;4.594;2023-02-20T01:14:06;13.77;;;8.33;;
64799;SDS011;51233;51.982;4.594;2023-02-20T01:17:07;19.67;;;9.37;;
64799;SDS011;51233;51.982;4.594;2023-02-20T01:20:07;18.20;;;9.67;;
64799;SDS011;51233;51.982;4.594;2023-02-20T01:23:07;18.50;;;10.07;;
64799;SDS011;51233;51.982;4.594;2023-02-20T01:26:08;17.83;;;10.37;;
64799;SDS011;51233;51.982;4.594;2023-02-20T01:29:08;17.98;;;9.93;;
64799;SDS011;51233;51.982;4.594;2023-02-20T01:32:10;21.83;;;10.70;;
64799;SDS011;51233;51.982;4.594;2023-02-20T01:35:10;19.15;;;9.82;;
64799;SDS011;51233;51.982;4.594;2023-02-20T01:38:10;25.27;;;11.75;;
64799;SDS011;51233;51.982;4.594;2023-02-20T01:41:10;22.67;;;10.87;;
64799;SDS011;51233;51.982;4.594;2023-02-20T01:44:23;19.07;;;9.57;;
64799;SDS011;51233;51.982;4.594;2023-02-20T01:47:23;21.67;;;11.77;;
64799;SDS011;51233;51.982;4.594;2023-02-20T01:50:24;26.10;;;11.48;;
64799;SDS011;51233;51.982;4.594;2023-02-20T01:53:26;26.83;;;13.52;;
64799;SDS011;51233;51.982;4.594;2023-02-20T01:56:30;25.85;;;12.45;;
64799;SDS011;51233;51.982;4.594;2023-02-20T01:59:31;19.65;;;11.25;;
64799;SDS011;51233;51.982;4.594;2023-02-20T02:05:32;21.80;;;11.95;;
64799;SDS011;51233;51.982;4.594;2023-02-20T02:08:36;26.08;;;12.45;;
64799;SDS011;51233;51.982;4.594;2023-02-20T02:11:39;27.92;;;12.88;;
64799;SDS011;51233;51.982;4.594;2023-02-20T02:14:39;26.05;;;12.88;;
64799;SDS011;51233;51.982;4.594;2023-02-20T02:17:47;23.45;;;9.75;;
64799;SDS011;51233;51.982;4.594;2023-02-20T02:24:02;23.83;;;12.93;;
64799;SDS011;51233;51.982;4.594;2023-02-20T02:27:08;24.42;;;11.85;;
64799;SDS011;51233;51.982;4.594;2023-02-20T02:45:50;24.83;;;13.30;;
64799;SDS011;51233;51.982;4.594;2023-02-20T02:49:00;28.40;;;12.82;;
64799;SDS011;51233;51.982;4.594;2023-02-20T02:52:03;25.63;;;13.17;;
64799;SDS011;51233;51.982;4.594;2023-02-20T02:55:04;26.05;;;13.45;;
64799;SDS011;51233;51.982;4.594;2023-02-20T02:58:13;24.80;;;13.50;;
64799;SDS011;51233;51.982;4.594;2023-02-20T03:01:17;27.65;;;13.35;;
64799;SDS011;51233;51.982;4.594;2023-02-20T03:04:19;25.83;;;12.27;;
64799;SDS011;51233;51.982;4.594;2023-02-20T03:07:22;32.75;;;13.63;;
64799;SDS011;51233;51.982;4.594;2023-02-20T03:10:26;29.92;;;13.05;;
64799;SDS011;51233;51.982;4.594;2023-02-20T03:13:34;22.38;;;11.43;;
64799;SDS011;51233;51.982;4.594;2023-02-20T03:19:56;23.83;;;10.48;;
64799;SDS011;51233;51.982;4.594;2023-02-20T03:22:59;29.38;;;10.68;;
64799;SDS011;51233;51.982;4.594;2023-02-20T03:26:03;23.35;;;10.02;;
64799;SDS011;51233;51.982;4.594;2023-02-20T03:29:05;24.75;;;9.52;;
64799;SDS011;51233;51.982;4.594;2023-02-20T03:32:15;21.88;;;9.05;;
64799;SDS011;51233;51.982;4.594;2023-02-20T03:35:35;22.40;;;9.10;;
64799;SDS011;51233;51.982;4.594;2023-02-20T03:38:58;24.67;;;9.43;;
64799;SDS011;51233;51.982;4.594;2023-02-20T03:45:37;22.70;;;7.97;;
64799;SDS011;51233;51.982;4.594;2023-02-20T03:51:39;23.50;;;8.55;;
64799;SDS011;51233;51.982;4.594;2023-02-20T03:54:40;21.55;;;9.20;;
64799;SDS011;51233;51.982;4.594;2023-02-20T03:57:42;20.55;;;7.65;;
64799;SDS011;51233;51.982;4.594;2023-02-20T04:00:44;27.95;;;9.40;;
64799;SDS011;51233;51.982;4.594;2023-02-20T04:03:44;27.00;;;9.93;;
64799;SDS011;51233;51.982;4.594;2023-02-20T04:06:45;22.00;;;8.50;;
64799;SDS011;51233;51.982;4.594;2023-02-20T04:09:47;22.33;;;9.13;;
64799;SDS011;51233;51.982;4.594;2023-02-20T04:12:47;17.33;;;7.97;;
64799;SDS011;51233;51.982;4.594;2023-02-20T04:15:48;24.92;;;9.00;;
64799;SDS011;51233;51.982;4.594;2023-02-20T04:18:48;21.00;;;8.27;;
64799;SDS011;51233;51.982;4.594;2023-02-20T04:21:53;27.88;;;9.10;;
64799;SDS011;51233;51.982;4.594;2023-02-20T04:24:58;22.17;;;7.78;;
64799;SDS011;51233;51.982;4.594;2023-02-20T04:28:00;25.45;;;7.85;;
64799;SDS011;51233;51.982;4.594;2023-02-20T04:31:03;18.80;;;7.45;;
64799;SDS011;51233;51.982;4.594;2023-02-20T04:34:06;22.48;;;7.85;;
64799;SDS011;51233;51.982;4.594;2023-02-20T04:37:11;13.38;;;6.20;;
64799;SDS011;51233;51.982;4.594;2023-02-20T04:40:12;16.65;;;5.63;;
64799;SDS011;51233;51.982;4.594;2023-02-20T04:43:13;21.17;;;7.03;;
64799;SDS011;51233;51.982;4.594;2023-02-20T04:46:13;16.63;;;6.53;;
64799;SDS011;51233;51.982;4.594;2023-02-20T04:49:13;20.75;;;6.45;;
64799;SDS011;51233;51.982;4.594;2023-02-20T04:52:14;17.60;;;6.47;;
64799;SDS011;51233;51.982;4.594;2023-02-20T04:55:14;17.63;;;7.03;;
64799;SDS011;51233;51.982;4.594;2023-02-20T04:58:14;15.25;;;6.65;;
64799;SDS011;51233;51.982;4.594;2023-02-20T05:01:15;21.00;;;6.95;;
64799;SDS011;51233;51.982;4.594;2023-02-20T05:04:15;16.42;;;7.10;;
64799;SDS011;51233;51.982;4.594;2023-02-20T05:07:16;18.90;;;7.38;;
64799;SDS011;51233;51.982;4.594;2023-02-20T05:10:18;16.52;;;7.13;;
64799;SDS011;51233;51.982;4.594;2023-02-20T05:13:18;12.50;;;6.53;;
64799;SDS011;51233;51.982;4.594;2023-02-20T05:16:18;20.85;;;8.00;;
64799;SDS011;51233;51.982;4.594;2023-02-20T05:19:18;19.23;;;7.15;;
64799;SDS011;51233;51.982;4.594;2023-02-20T05:22:19;18.08;;;6.75;;
64799;SDS011;51233;51.982;4.594;2023-02-20T05:25:19;19.40;;;7.53;;
64799;SDS011;51233;51.982;4.594;2023-02-20T05:28:19;20.83;;;7.05;;
64799;SDS011;51233;51.982;4.594;2023-02-20T05:31:19;14.35;;;6.90;;
64799;SDS011;51233;51.982;4.594;2023-02-20T05:34:19;20.02;;;7.05;;
64799;SDS011;51233;51.982;4.594;2023-02-20T05:37:24;17.52;;;6.72;;
64799;SDS011;51233;51.982;4.594;2023-02-20T05:40:25;16.48;;;6.20;;
64799;SDS011;51233;51.982;4.594;2023-02-20T05:43:28;18.05;;;6.68;;
64799;SDS011;51233;51.982;4.594;2023-02-20T05:46:31;15.63;;;6.35;;
64799;SDS011;51233;51.982;4.594;2023-02-20T05:49:32;17.80;;;7.20;;
64799;SDS011;51233;51.982;4.594;2023-02-20T05:55:36;20.42;;;6.82;;
64799;SDS011;51233;51.982;4.594;2023-02-20T05:58:37;17.17;;;6.82;;
64799;SDS011;51233;51.982;4.594;2023-02-20T06:01:37;19.90;;;7.13;;
64799;SDS011;51233;51.982;4.594;2023-02-20T06:04:38;21.58;;;6.35;;
64799;SDS011;51233;51.982;4.594;2023-02-20T06:07:38;19.88;;;7.07;;
64799;SDS011;51233;51.982;4.594;2023-02-20T06:10:38;15.88;;;5.70;;
64799;SDS011;51233;51.982;4.594;2023-02-20T06:13:41;19.65;;;6.47;;
64799;SDS011;51233;51.982;4.594;2023-02-20T06:16:41;16.90;;;6.13;;
64799;SDS011;51233;51.982;4.594;2023-02-20T06:19:42;14.77;;;6.50;;
64799;SDS011;51233;51.982;4.594;2023-02-20T06:22:42;21.08;;;6.28;;
64799;SDS011;51233;51.982;4.594;2023-02-20T06:25:42;15.23;;;5.60;;
64799;SDS011;51233;51.982;4.594;2023-02-20T06:28:42;16.23;;;5.32;;
64799;SDS011;51233;51.982;4.594;2023-02-20T06:31:43;17.90;;;5.75;;
64799;SDS011;51233;51.982;4.594;2023-02-20T06:34:43;15.93;;;5.53;;
64799;SDS011;51233;51.982;4.594;2023-02-20T06:37:44;16.00;;;5.18;;
64799;SDS011;51233;51.982;4.594;2023-02-20T06:40:47;20.38;;;5.88;;
64799;SDS011;51233;51.982;4.594;2023-02-20T06:43:47;19.45;;;6.38;;
64799;SDS011;51233;51.982;4.594;2023-02-20T06:46:48;20.83;;;6.28;;
64799;SDS011;51233;51.982;4.594;2023-02-20T06:49:48;18.73;;;5.55;;
64799;SDS011;51233;51.982;4.594;2023-02-20T06:52:51;19.55;;;6.18;;
64799;SDS011;51233;51.982;4.594;2023-02-20T06:55:51;13.48;;;4.95;;
64799;SDS011;51233;51.982;4.594;2023-02-20T06:58:54;18.60;;;5.35;;
64799;SDS011;51233;51.982;4.594;2023-02-20T07:01:55;15.93;;;5.65;;
64799;SDS011;51233;51.982;4.594;2023-02-20T07:04:55;13.90;;;5.15;;
64799;SDS011;51233;51.982;4.594;2023-02-20T07:07:55;15.23;;;5.35;;
64799;SDS011;51233;51.982;4.594;2023-02-20T07:10:55;11.73;;;4.95;;
64799;SDS011;51233;51.982;4.594;2023-02-20T07:13:56;20.02;;;6.03;;
64799;SDS011;51233;51.982;4.594;2023-02-20T07:16:57;22.90;;;4.72;;
64799;SDS011;51233;51.982;4.594;2023-02-20T07:19:57;19.13;;;4.88;;
64799;SDS011;51233;51.982;4.594;2023-02-20T07:22:58;16.40;;;4.82;;
64799;SDS011;51233;51.982;4.594;2023-02-20T07:25:58;17.33;;;5.17;;
64799;SDS011;51233;51.982;4.594;2023-02-20T07:28:58;15.00;;;5.28;;
64799;SDS011;51233;51.982;4.594;2023-02-20T07:31:59;15.80;;;4.77;;
64799;SDS011;51233;51.982;4.594;2023-02-20T07:34:59;16.45;;;4.88;;
64799;SDS011;51233;51.982;4.594;2023-02-20T07:38:00;19.25;;;5.78;;
64799;SDS011;51233;51.982;4.594;2023-02-20T07:41:00;17.23;;;4.72;;
64799;SDS011;51233;51.982;4.594;2023-02-20T07:44:00;18.17;;;5.27;;
64799;SDS011;51233;51.982;4.594;2023-02-20T07:47:00;20.20;;;5.72;;
64799;SDS011;51233;51.982;4.594;2023-02-20T07:50:01;14.90;;;5.70;;
64799;SDS011;51233;51.982;4.594;2023-02-20T07:53:01;17.57;;;5.17;;
64799;SDS011;51233;51.982;4.594;2023-02-20T07:56:01;13.50;;;5.27;;
64799;SDS011;51233;51.982;4.594;2023-02-20T07:59:04;18.05;;;5.40;;
64799;SDS011;51233;51.982;4.594;2023-02-20T08:02:04;11.40;;;5.10;;
64799;SDS011;51233;51.982;4.594;2023-02-20T08:05:04;14.73;;;5.68;;
64799;SDS011;51233;51.982;4.594;2023-02-20T08:08:05;19.52;;;6.10;;
64799;SDS011;51233;51.982;4.594;2023-02-20T08:11:05;15.07;;;5.80;;
64799;SDS011;51233;51.982;4.594;2023-02-20T08:14:06;20.27;;;6.13;;
64799;SDS011;51233;51.982;4.594;2023-02-20T08:17:06;19.90;;;6.47;;
64799;SDS011;51233;51.982;4.594;2023-02-20T08:20:07;16.35;;;5.00;;
64799;SDS011;51233;51.982;4.594;2023-02-20T08:23:17;14.90;;;6.13;;
64799;SDS011;51233;51.982;4.594;2023-02-20T08:26:18;15.18;;;6.55;;
64799;SDS011;51233;51.982;4.594;2023-02-20T08:29:18;18.63;;;6.03;;
64799;SDS011;51233;51.982;4.594;2023-02-20T08:32:18;13.57;;;6.85;;
64799;SDS011;51233;51.982;4.594;2023-02-20T08:35:18;17.87;;;6.20;;
64799;SDS011;51233;51.982;4.594;2023-02-20T08:38:30;12.35;;;5.28;;
64799;SDS011;51233;51.982;4.594;2023-02-20T08:41:30;15.77;;;5.80;;
64799;SDS011;51233;51.982;4.594;2023-02-20T08:44:30;15.52;;;5.18;;
64799;SDS011;51233;51.982;4.594;2023-02-20T08:47:31;13.25;;;5.75;;
64799;SDS011;51233;51.982;4.594;2023-02-20T08:50:31;16.48;;;6.38;;
64799;SDS011;51233;51.982;4.594;2023-02-20T08:53:32;12.27;;;5.20;;
64799;SDS011;51233;51.982;4.594;2023-02-20T08:56:32;13.40;;;5.45;;
64799;SDS011;51233;51.982;4.594;2023-02-20T08:59:32;13.23;;;5.57;;
64799;SDS011;51233;51.982;4.594;2023-02-20T09:02:33;10.05;;;5.30;;
64799;SDS011;51233;51.982;4.594;2023-02-20T09:05:33;11.53;;;5.43;;
64799;SDS011;51233;51.982;4.594;2023-02-20T09:08:34;12.73;;;6.07;;
64799;SDS011;51233;51.982;4.594;2023-02-20T09:11:34;17.95;;;6.07;;
64799;SDS011;51233;51.982;4.594;2023-02-20T09:14:35;11.48;;;6.35;;
64799;SDS011;51233;51.982;4.594;2023-02-20T09:17:36;11.55;;;5.35;;
64799;SDS011;51233;51.982;4.594;2023-02-20T09:20:36;10.82;;;5.35;;
64799;SDS011;51233;51.982;4.594;2023-02-20T09:23:37;12.40;;;5.72;;
64799;SDS011;51233;51.982;4.594;2023-02-20T09:26:37;12.20;;;5.50;;
64799;SDS011;51233;51.982;4.594;2023-02-20T09:29:37;11.38;;;6.00;;
64799;SDS011;51233;51.982;4.594;2023-02-20T09:35:40;8.70;;;4.95;;
64799;SDS011;51233;51.982;4.594;2023-02-20T09:38:40;9.32;;;5.22;;
64799;SDS011;51233;51.982;4.594;2023-02-20T09:41:43;9.02;;;5.05;;
64799;SDS011;51233;51.982;4.594;2023-02-20T09:57:22;12.27;;;4.97;;
64799;SDS011;51233;51.982;4.594;2023-02-20T10:00:32;7.50;;;5.03;;
64799;SDS011;51233;51.982;4.594;2023-02-20T10:03:53;10.48;;;5.60;;
64799;SDS011;51233;51.982;4.594;2023-02-20T10:06:56;10.15;;;4.95;;
64799;SDS011;51233;51.982;4.594;2023-02-20T10:10:02;9.20;;;4.90;;
64799;SDS011;51233;51.982;4.594;2023-02-20T10:16:44;8.45;;;4.65;;
64799;SDS011;51233;51.982;4.594;2023-02-20T10:19:43;10.85;;;5.10;;
64799;SDS011;51233;51.982;4.594;2023-02-20T10:22:48;8.45;;;4.47;;
64799;SDS011;51233;51.982;4.594;2023-02-20T10:25:50;6.53;;;3.67;;
64799;SDS011;51233;51.982;4.594;2023-02-20T10:28:51;7.00;;;3.97;;
64799;SDS011;51233;51.982;4.594;2023-02-20T10:31:52;10.48;;;3.90;;
64799;SDS011;51233;51.982;4.594;2023-02-20T10:35:00;9.95;;;3.95;;
64799;SDS011;51233;51.982;4.594;2023-02-20T10:38:03;7.40;;;3.88;;
64799;SDS011;51233;51.982;4.594;2023-02-20T10:41:05;11.18;;;3.95;;
64799;SDS011;51233;51.982;4.594;2023-02-20T10:47:15;8.15;;;2.75;;
64799;SDS011;51233;51.982;4.594;2023-02-20T10:50:28;5.85;;;3.50;;
64799;SDS011;51233;51.982;4.594;2023-02-20T10:56:37;7.22;;;3.53;;
64799;SDS011;51233;51.982;4.594;2023-02-20T10:59:42;10.27;;;3.83;;
64799;SDS011;51233;51.982;4.594;2023-02-20T11:02:45;8.50;;;3.70;;
64799;SDS011;51233;51.982;4.594;2023-02-20T11:05:48;10.20;;;3.58;;
64799;SDS011;51233;51.982;4.594;2023-02-20T11:08:50;6.60;;;3.33;;
64799;SDS011;51233;51.982;4.594;2023-02-20T11:11:51;8.80;;;3.42;;
64799;SDS011;51233;51.982;4.594;2023-02-20T11:14:52;6.55;;;3.65;;
64799;SDS011;51233;51.982;4.594;2023-02-20T11:17:54;5.70;;;2.78;;
64799;SDS011;51233;51.982;4.594;2023-02-20T11:20:55;7.27;;;2.83;;
64799;SDS011;51233;51.982;4.594;2023-02-20T11:23:56;7.13;;;3.20;;
64799;SDS011;51233;51.982;4.594;2023-02-20T11:26:57;8.63;;;3.00;;
64799;SDS011;51233;51.982;4.594;2023-02-20T11:30:03;7.20;;;2.80;;
64799;SDS011;51233;51.982;4.594;2023-02-20T11:39:16;10.70;;;3.20;;
64799;SDS011;51233;51.982;4.594;2023-02-20T11:42:18;9.52;;;3.08;;
64799;SDS011;51233;51.982;4.594;2023-02-20T11:45:23;13.45;;;2.75;;
64799;SDS011;51233;51.982;4.594;2023-02-20T11:48:25;11.07;;;3.40;;
64799;SDS011;51233;51.982;4.594;2023-02-20T11:51:29;12.45;;;3.65;;
64799;SDS011;51233;51.982;4.594;2023-02-20T11:54:31;9.40;;;3.20;;
64799;SDS011;51233;51.982;4.594;2023-02-20T11:57:31;11.45;;;3.28;;
64799;SDS011;51233;51.982;4.594;2023-02-20T12:00:47;10.20;;;2.95;;
64799;SDS011;51233;51.982;4.594;2023-02-20T12:03:53;9.93;;;3.35;;
64799;SDS011;51233;51.982;4.594;2023-02-20T12:13:37;12.43;;;2.97;;
64799;SDS011;51233;51.982;4.594;2023-02-20T12:26:01;11.40;;;3.30;;
64799;SDS011;51233;51.982;4.594;2023-02-20T12:29:07;11.07;;;3.47;;
64799;SDS011;51233;51.982;4.594;2023-02-20T12:41:49;9.90;;;3.05;;
64799;SDS011;51233;51.982;4.594;2023-02-20T12:48:20;9.57;;;3.67;;
64799;SDS011;51233;51.982;4.594;2023-02-20T12:54:48;13.60;;;3.70;;
64799;SDS011;51233;51.982;4.594;2023-02-20T12:57:58;9.18;;;2.78;;
64799;SDS011;51233;51.982;4.594;2023-02-20T13:01:04;11.20;;;3.88;;
64799;SDS011;51233;51.982;4.594;2023-02-20T13:07:25;7.88;;;2.90;;
64799;SDS011;51233;51.982;4.594;2023-02-20T13:10:34;9.15;;;3.15;;
64799;SDS011;51233;51.982;4.594;2023-02-20T13:13:45;8.13;;;2.83;;
64799;SDS011;51233;51.982;4.594;2023-02-20T13:23:03;11.70;;;3.63;;
64799;SDS011;51233;51.982;4.594;2023-02-20T13:26:49;11.88;;;3.33;;
64799;SDS011;51233;51.982;4.594;2023-02-20T13:29:25;7.07;;;2.55;;
64799;SDS011;51233;51.982;4.594;2023-02-20T13:32:31;16.02;;;3.55;;
64799;SDS011;51233;51.982;4.594;2023-02-20T13:35:50;7.20;;;2.83;;
64799;SDS011;51233;51.982;4.594;2023-02-20T13:39:24;7.00;;;2.88;;
64799;SDS011;51233;51.982;4.594;2023-02-20T13:42:25;9.43;;;3.47;;
64799;SDS011;51233;51.982;4.594;2023-02-20T13:45:37;11.90;;;3.80;;
64799;SDS011;51233;51.982;4.594;2023-02-20T13:48:51;12.52;;;3.60;;
64799;SDS011;51233;51.982;4.594;2023-02-20T13:51:51;9.70;;;3.38;;
64799;SDS011;51233;51.982;4.594;2023-02-20T13:54:51;9.02;;;3.03;;
64799;SDS011;51233;51.982;4.594;2023-02-20T13:57:53;10.63;;;3.20;;
64799;SDS011;51233;51.982;4.594;2023-02-20T14:00:53;11.13;;;3.72;;
64799;SDS011;51233;51.982;4.594;2023-02-20T14:04:03;7.63;;;2.92;;
64799;SDS011;51233;51.982;4.594;2023-02-20T14:07:04;11.65;;;3.53;;
64799;SDS011;51233;51.982;4.594;2023-02-20T14:13:14;15.80;;;4.00;;
64799;SDS011;51233;51.982;4.594;2023-02-20T14:16:34;6.67;;;3.40;;
64799;SDS011;51233;51.982;4.594;2023-02-20T14:19:37;5.80;;;2.60;;
64799;SDS011;51233;51.982;4.594;2023-02-20T14:22:38;8.38;;;3.30;;
64799;SDS011;51233;51.982;4.594;2023-02-20T14:25:38;9.32;;;3.42;;
64799;SDS011;51233;51.982;4.594;2023-02-20T14:28:45;10.07;;;3.30;;
64799;SDS011;51233;51.982;4.594;2023-02-20T14:31:46;9.10;;;3.35;;
64799;SDS011;51233;51.982;4.594;2023-02-20T14:34:52;8.88;;;3.10;;
64799;SDS011;51233;51.982;4.594;2023-02-20T14:41:37;7.35;;;2.90;;
64799;SDS011;51233;51.982;4.594;2023-02-20T14:44:31;6.38;;;2.85;;
64799;SDS011;51233;51.982;4.594;2023-02-20T14:47:31;7.28;;;2.50;;
64799;SDS011;51233;51.982;4.594;2023-02-20T14:50:34;7.50;;;3.20;;
64799;SDS011;51233;51.982;4.594;2023-02-20T14:53:35;5.57;;;2.83;;
64799;SDS011;51233;51.982;4.594;2023-02-20T14:56:36;6.27;;;2.83;;
64799;SDS011;51233;51.982;4.594;2023-02-20T14:59:37;7.63;;;3.35;;
64799;SDS011;51233;51.982;4.594;2023-02-20T15:02:42;6.57;;;3.17;;
64799;SDS011;51233;51.982;4.594;2023-02-20T15:05:43;16.05;;;7.57;;
64799;SDS011;51233;51.982;4.594;2023-02-20T15:08:43;8.13;;;5.38;;
64799;SDS011;51233;51.982;4.594;2023-02-20T15:11:48;10.60;;;5.53;;
64799;SDS011;51233;51.982;4.594;2023-02-20T15:14:53;7.13;;;3.38;;
64799;SDS011;51233;51.982;4.594;2023-02-20T15:18:04;9.40;;;3.80;;
64799;SDS011;51233;51.982;4.594;2023-02-20T15:21:05;8.82;;;4.30;;
64799;SDS011;51233;51.982;4.594;2023-02-20T15:24:12;7.88;;;3.65;;
64799;SDS011;51233;51.982;4.594;2023-02-20T15:27:14;8.20;;;4.15;;
64799;SDS011;51233;51.982;4.594;2023-02-20T15:30:16;10.45;;;3.67;;
64799;SDS011;51233;51.982;4.594;2023-02-20T15:33:16;7.30;;;3.65;;
64799;SDS011;51233;51.982;4.594;2023-02-20T15:36:19;5.80;;;3.28;;
64799;SDS011;51233;51.982;4.594;2023-02-20T15:39:19;7.80;;;3.85;;
64799;SDS011;51233;51.982;4.594;2023-02-20T15:42:21;9.85;;;3.95;;
64799;SDS011;51233;51.982;4.594;2023-02-20T15:45:25;9.43;;;3.78;;
64799;SDS011;51233;51.982;4.594;2023-02-20T15:48:25;7.47;;;3.30;;
64799;SDS011;51233;51.982;4.594;2023-02-20T15:51:25;7.00;;;3.70;;
64799;SDS011;51233;51.982;4.594;2023-02-20T15:54:25;7.50;;;3.67;;
64799;SDS011;51233;51.982;4.594;2023-02-20T15:57:26;8.23;;;3.90;;
64799;SDS011;51233;51.982;4.594;2023-02-20T16:00:31;8.00;;;3.85;;
64799;SDS011;51233;51.982;4.594;2023-02-20T16:03:32;6.43;;;3.90;;
64799;SDS011;51233;51.982;4.594;2023-02-20T16:06:32;8.20;;;3.83;;
64799;SDS011;51233;51.982;4.594;2023-02-20T16:09:33;9.43;;;4.00;;
64799;SDS011;51233;51.982;4.594;2023-02-20T16:12:33;13.70;;;3.83;;
64799;SDS011;51233;51.982;4.594;2023-02-20T16:15:33;7.78;;;3.00;;
64799;SDS011;51233;51.982;4.594;2023-02-20T16:18:33;5.28;;;2.83;;
64799;SDS011;51233;51.982;4.594;2023-02-20T16:21:33;10.18;;;4.30;;
64799;SDS011;51233;51.982;4.594;2023-02-20T16:24:33;6.40;;;3.70;;
64799;SDS011;51233;51.982;4.594;2023-02-20T16:27:35;8.50;;;3.78;;
64799;SDS011;51233;51.982;4.594;2023-02-20T16:30:39;10.13;;;4.15;;
64799;SDS011;51233;51.982;4.594;2023-02-20T16:33:39;9.07;;;3.30;;
64799;SDS011;51233;51.982;4.594;2023-02-20T16:36:39;10.35;;;3.65;;
64799;SDS011;51233;51.982;4.594;2023-02-20T16:39:39;8.75;;;3.90;;
64799;SDS011;51233;51.982;4.594;2023-02-20T16:42:40;11.23;;;4.10;;
64799;SDS011;51233;51.982;4.594;2023-02-20T16:45:40;6.82;;;3.80;;
64799;SDS011;51233;51.982;4.594;2023-02-20T16:48:43;7.45;;;3.83;;
64799;SDS011;51233;51.982;4.594;2023-02-20T16:51:48;13.52;;;4.22;;
64799;SDS011;51233;51.982;4.594;2023-02-20T16:58:02;10.10;;;4.10;;
64799;SDS011;51233;51.982;4.594;2023-02-20T17:01:05;9.95;;;4.50;;
64799;SDS011;51233;51.982;4.594;2023-02-20T17:04:05;9.68;;;4.13;;
64799;SDS011;51233;51.982;4.594;2023-02-20T17:07:08;8.63;;;3.78;;
64799;SDS011;51233;51.982;4.594;2023-02-20T17:10:09;7.65;;;4.28;;
64799;SDS011;51233;51.982;4.594;2023-02-20T17:13:12;7.75;;;4.60;;
64799;SDS011;51233;51.982;4.594;2023-02-20T17:16:12;12.73;;;4.82;;
64799;SDS011;51233;51.982;4.594;2023-02-20T17:19:12;9.67;;;4.80;;
64799;SDS011;51233;51.982;4.594;2023-02-20T17:22:13;10.27;;;4.57;;
64799;SDS011;51233;51.982;4.594;2023-02-20T17:25:13;15.38;;;5.43;;
64799;SDS011;51233;51.982;4.594;2023-02-20T17:28:14;12.37;;;4.87;;
64799;SDS011;51233;51.982;4.594;2023-02-20T17:31:14;11.50;;;5.32;;
64799;SDS011;51233;51.982;4.594;2023-02-20T17:34:15;8.57;;;4.93;;
64799;SDS011;51233;51.982;4.594;2023-02-20T17:37:15;8.70;;;5.10;;
64799;SDS011;51233;51.982;4.594;2023-02-20T17:40:15;11.50;;;5.15;;
64799;SDS011;51233;51.982;4.594;2023-02-20T17:43:16;13.65;;;5.68;;
64799;SDS011;51233;51.982;4.594;2023-02-20T17:46:16;12.93;;;5.15;;
64799;SDS011;51233;51.982;4.594;2023-02-20T17:49:17;10.50;;;5.05;;
64799;SDS011;51233;51.982;4.594;2023-02-20T17:52:18;11.90;;;5.40;;
64799;SDS011;51233;51.982;4.594;2023-02-20T17:55:20;11.85;;;6.80;;
64799;SDS011;51233;51.982;4.594;2023-02-20T17:58:20;18.95;;;7.50;;
64799;SDS011;51233;51.982;4.594;2023-02-20T18:01:21;13.10;;;8.00;;
64799;SDS011;51233;51.982;4.594;2023-02-20T18:04:26;13.30;;;7.93;;
64799;SDS011;51233;51.982;4.594;2023-02-20T18:07:28;16.25;;;8.32;;
64799;SDS011;51233;51.982;4.594;2023-02-20T18:10:28;12.00;;;7.32;;
64799;SDS011;51233;51.982;4.594;2023-02-20T18:13:29;17.50;;;9.15;;
64799;SDS011;51233;51.982;4.594;2023-02-20T18:16:29;18.10;;;8.63;;
64799;SDS011;51233;51.982;4.594;2023-02-20T18:19:32;17.15;;;9.43;;
64799;SDS011;51233;51.982;4.594;2023-02-20T18:22:32;17.77;;;10.15;;
64799;SDS011;51233;51.982;4.594;2023-02-20T18:25:32;18.67;;;10.95;;
64799;SDS011;51233;51.982;4.594;2023-02-20T18:28:33;15.82;;;8.70;;
64799;SDS011;51233;51.982;4.594;2023-02-20T18:31:33;18.13;;;9.95;;
64799;SDS011;51233;51.982;4.594;2023-02-20T18:34:33;14.73;;;8.60;;
64799;SDS011;51233;51.982;4.594;2023-02-20T18:37:33;19.55;;;7.50;;
64799;SDS011;51233;51.982;4.594;2023-02-20T18:40:33;15.00;;;8.40;;
64799;SDS011;51233;51.982;4.594;2023-02-20T18:43:34;13.75;;;7.72;;
64799;SDS011;51233;51.982;4.594;2023-02-20T18:46:36;16.33;;;8.47;;
64799;SDS011;51233;51.982;4.594;2023-02-20T18:49:36;14.75;;;8.50;;
64799;SDS011;51233;51.982;4.594;2023-02-20T18:52:45;10.02;;;5.63;;
64799;SDS011;51233;51.982;4.594;2023-02-20T18:55:46;18.48;;;7.60;;
64799;SDS011;51233;51.982;4.594;2023-02-20T18:58:46;14.32;;;7.68;;
64799;SDS011;51233;51.982;4.594;2023-02-20T19:01:47;22.02;;;15.10;;
64799;SDS011;51233;51.982;4.594;2023-02-20T19:04:47;24.23;;;17.30;;
64799;SDS011;51233;51.982;4.594;2023-02-20T19:07:48;14.95;;;9.20;;
64799;SDS011;51233;51.982;4.594;2023-02-20T19:10:48;12.50;;;6.97;;
64799;SDS011;51233;51.982;4.594;2023-02-20T19:13:49;17.75;;;8.50;;
64799;SDS011;51233;51.982;4.594;2023-02-20T19:16:49;13.95;;;8.15;;
64799;SDS011;51233;51.982;4.594;2023-02-20T19:19:50;10.68;;;7.30;;
64799;SDS011;51233;51.982;4.594;2023-02-20T19:22:50;12.98;;;7.03;;
64799;SDS011;51233;51.982;4.594;2023-02-20T19:25:50;9.10;;;6.88;;
64799;SDS011;51233;51.982;4.594;2023-02-20T19:29:12;14.18;;;7.55;;
64799;SDS011;51233;51.982;4.594;2023-02-20T19:32:12;17.37;;;8.90;;
64799;SDS011;51233;51.982;4.594;2023-02-20T19:35:15;16.35;;;7.88;;
64799;SDS011;51233;51.982;4.594;2023-02-20T19:38:15;13.75;;;8.10;;
64799;SDS011;51233;51.982;4.594;2023-02-20T19:41:16;12.50;;;9.02;;
64799;SDS011;51233;51.982;4.594;2023-02-20T19:44:16;19.67;;;10.20;;
64799;SDS011;51233;51.982;4.594;2023-02-20T19:47:16;20.80;;;11.05;;
64799;SDS011;51233;51.982;4.594;2023-02-20T19:50:17;20.20;;;10.10;;
64799;SDS011;51233;51.982;4.594;2023-02-20T19:53:19;20.92;;;10.93;;
64799;SDS011;51233;51.982;4.594;2023-02-20T19:56:20;17.05;;;10.00;;
64799;SDS011;51233;51.982;4.594;2023-02-20T19:59:20;16.38;;;10.73;;
64799;SDS011;51233;51.982;4.594;2023-02-20T20:02:20;16.30;;;9.55;;